createdAt,value
2023-03-04T00:00:58.646Z,41.17
2023-03-04T00:03:28.776Z,43.60
2023-03-04T00:05:57.705Z,41.07
2023-03-04T00:08:26.388Z,38.47
2023-03-04T00:10:55.193Z,34.37
2023-03-04T00:13:24.371Z,36.77
2023-03-04T00:15:53.427Z,38.20
2023-03-04T00:18:22.274Z,41.53
2023-03-04T00:20:52.502Z,35.73
2023-03-04T00:23:21.190Z,38.33
2023-03-04T00:25:50.500Z,38.13
2023-03-04T00:28:19.206Z,38.73
2023-03-04T00:30:47.879Z,41.90
2023-03-04T00:33:16.978Z,42.90
2023-03-04T00:35:45.694Z,42.67
2023-03-04T00:38:15.856Z,44.33
2023-03-04T00:40:44.630Z,39.60
2023-03-04T00:43:13.284Z,42.90
2023-03-04T00:45:42.136Z,40.50
2023-03-04T00:48:11.485Z,40.07
2023-03-04T00:50:40.380Z,41.73
2023-03-04T00:53:09.053Z,42.23
2023-03-04T00:55:39.268Z,41.30
2023-03-04T00:58:07.944Z,38.43
2023-03-04T01:00:36.969Z,36.27
2023-03-04T01:03:05.739Z,34.27
2023-03-04T01:05:35.999Z,36.67
2023-03-04T01:08:05.456Z,37.07
2023-03-04T01:10:34.340Z,37.17
2023-03-04T01:13:04.502Z,33.87
2023-03-04T01:15:33.223Z,33.30
2023-03-04T01:18:02.177Z,31.73
2023-03-04T01:20:31.246Z,34.40
2023-03-04T01:22:59.947Z,35.00
2023-03-04T01:25:28.673Z,32.03
2023-03-04T01:27:57.422Z,30.13
2023-03-04T01:30:27.656Z,26.97
2023-03-04T01:32:59.072Z,30.80
2023-03-04T01:35:27.905Z,29.57
2023-03-04T01:37:58.747Z,29.67
2023-03-04T01:40:27.529Z,23.80
2023-03-04T01:42:56.804Z,28.83
2023-03-04T01:45:27.197Z,28.80
2023-03-04T01:47:55.855Z,27.70
2023-03-04T01:50:31.970Z,30.40
2023-03-04T01:53:01.784Z,27.33
2023-03-04T01:55:32.176Z,27.67
2023-03-04T01:58:00.971Z,24.83
2023-03-04T02:00:33.604Z,27.53
2023-03-04T02:03:08.014Z,28.07
2023-03-04T02:05:39.295Z,27.20
2023-03-04T02:08:10.179Z,27.57
2023-03-04T02:10:39.510Z,29.93
2023-03-04T02:13:08.486Z,24.57
2023-03-04T02:15:38.975Z,30.03
2023-03-04T02:18:17.969Z,27.83
2023-03-04T02:21:01.672Z,28.33
2023-03-04T02:23:40.104Z,28.20
2023-03-04T02:26:17.680Z,27.53
2023-03-04T02:28:52.211Z,26.60
2023-03-04T02:31:27.635Z,30.10
2023-03-04T02:34:01.518Z,25.43
2023-03-04T02:36:31.075Z,28.63
2023-03-04T02:39:06.726Z,25.30
2023-03-04T02:41:37.491Z,27.67
2023-03-04T02:44:19.725Z,27.23
2023-03-04T02:46:50.135Z,30.13
2023-03-04T02:49:20.239Z,26.30
2023-03-04T02:51:52.850Z,28.33
2023-03-04T02:54:24.696Z,27.80
2023-03-04T02:56:58.978Z,27.63
2023-03-04T02:59:29.286Z,27.13
2023-03-04T03:01:58.604Z,27.77
2023-03-04T03:04:28.978Z,27.13
2023-03-04T03:06:57.665Z,27.53
2023-03-04T03:09:30.215Z,30.60
2023-03-04T03:12:00.300Z,34.47
2023-03-04T03:14:30.435Z,27.87
2023-03-04T03:16:59.854Z,28.97
2023-03-04T03:19:28.476Z,31.37
2023-03-04T03:21:57.186Z,32.07
2023-03-04T03:24:25.941Z,28.00
2023-03-04T03:26:54.648Z,27.17
2023-03-04T03:29:25.221Z,28.40
2023-03-04T03:31:54.006Z,27.13
2023-03-04T03:34:23.078Z,25.97
2023-03-04T03:36:52.307Z,25.23
2023-03-04T03:39:21.169Z,26.17
2023-03-04T03:41:50.200Z,26.57
2023-03-04T03:44:18.970Z,25.50
2023-03-04T03:46:49.143Z,24.93
2023-03-04T03:49:18.263Z,26.37
2023-03-04T03:51:47.108Z,21.17
2023-03-04T03:54:15.788Z,23.57
2023-03-04T03:56:44.544Z,22.97
2023-03-04T03:59:13.323Z,22.83
2023-03-04T04:01:42.098Z,23.07
2023-03-04T04:04:12.252Z,26.63
2023-03-04T04:06:41.071Z,26.47
2023-03-04T04:09:09.790Z,25.63
2023-03-04T04:11:38.609Z,24.33
2023-03-04T04:14:07.311Z,28.50
2023-03-04T04:16:36.095Z,26.10
2023-03-04T04:19:04.884Z,27.37
2023-03-04T04:21:35.260Z,25.97
2023-03-04T04:24:04.921Z,27.73
2023-03-04T04:26:33.697Z,27.77
2023-03-04T04:29:02.525Z,27.00
2023-03-04T04:31:32.206Z,25.00
2023-03-04T04:34:02.040Z,25.97
2023-03-04T04:36:30.798Z,24.70
2023-03-04T04:39:00.945Z,22.67
2023-03-04T04:41:33.389Z,27.43
2023-03-04T04:44:02.119Z,24.77
2023-03-04T04:46:30.925Z,25.13
2023-03-04T04:48:59.839Z,23.93
2023-03-04T04:51:28.728Z,24.50
2023-03-04T04:53:57.686Z,24.80
2023-03-04T04:56:29.179Z,25.67
2023-03-04T04:59:01.903Z,25.60
2023-03-04T05:01:30.880Z,25.63
2023-03-04T05:03:59.586Z,24.10
2023-03-04T05:06:28.272Z,25.30
2023-03-04T05:08:56.992Z,28.33
2023-03-04T05:11:27.055Z,22.87
2023-03-04T05:13:55.842Z,24.40
2023-03-04T05:16:24.627Z,28.63
2023-03-04T05:18:53.412Z,27.47
2023-03-04T05:21:22.190Z,24.37
2023-03-04T05:23:51.214Z,26.67
2023-03-04T05:26:20.919Z,24.83
2023-03-04T05:29:08.153Z,24.80
2023-03-04T05:31:36.981Z,28.57
2023-03-04T05:34:05.756Z,26.87
2023-03-04T05:36:34.454Z,23.30
2023-03-04T05:39:03.278Z,27.20
2023-03-04T05:41:31.982Z,28.23
2023-03-04T05:44:02.520Z,24.97
2023-03-04T05:46:34.526Z,26.97
2023-03-04T05:49:03.512Z,29.57
2023-03-04T05:51:32.246Z,27.83
2023-03-04T05:54:00.946Z,25.47
2023-03-04T05:56:30.599Z,26.60
2023-03-04T05:59:01.783Z,26.40
2023-03-04T06:01:31.533Z,30.67
2023-03-04T06:04:03.393Z,33.77
2023-03-04T06:06:37.716Z,28.87
2023-03-04T06:09:06.587Z,27.50
2023-03-04T06:11:36.469Z,30.10
2023-03-04T06:14:06.843Z,27.77
2023-03-04T06:16:35.631Z,26.97
2023-03-04T06:19:04.319Z,30.33
2023-03-04T06:21:33.056Z,23.77
2023-03-04T06:24:01.672Z,24.13
2023-03-04T06:26:30.366Z,23.67
2023-03-04T06:28:59.007Z,27.80
2023-03-04T06:31:29.152Z,24.83
2023-03-04T06:33:57.957Z,27.10
2023-03-04T06:36:26.736Z,29.07
2023-03-04T06:38:55.589Z,29.10
2023-03-04T06:41:24.740Z,26.30
2023-03-04T06:43:55.809Z,23.83
2023-03-04T06:46:25.484Z,31.70
2023-03-04T06:48:55.673Z,28.87
2023-03-04T06:51:24.468Z,30.10
2023-03-04T06:53:53.229Z,28.70
2023-03-04T06:56:22.116Z,27.97
2023-03-04T06:58:51.789Z,32.97
2023-03-04T07:01:23.209Z,27.77
2023-03-04T07:03:55.265Z,27.10
2023-03-04T07:06:27.150Z,26.87
2023-03-04T07:08:56.840Z,25.00
2023-03-04T07:11:26.636Z,26.03
2023-03-04T07:13:55.971Z,24.43
2023-03-04T07:16:25.546Z,25.87
2023-03-04T07:18:56.394Z,23.93
2023-03-04T07:21:26.018Z,24.77
2023-03-04T07:23:57.885Z,26.43
2023-03-04T07:26:32.136Z,22.13
2023-03-04T07:29:01.865Z,27.50
2023-03-04T07:31:33.488Z,28.17
2023-03-04T07:34:07.455Z,24.07
2023-03-04T07:36:42.063Z,24.73
2023-03-04T07:39:14.786Z,24.17
2023-03-04T07:41:44.379Z,25.53
2023-03-04T07:44:14.827Z,23.20
2023-03-04T07:46:44.201Z,23.33
2023-03-04T07:49:16.309Z,25.27
2023-03-04T07:51:46.011Z,22.03
2023-03-04T07:54:14.939Z,21.83
2023-03-04T07:56:46.063Z,27.47
2023-03-04T07:59:15.203Z,23.13
2023-03-04T08:01:45.658Z,23.40
2023-03-04T08:04:15.835Z,24.47
2023-03-04T08:06:44.763Z,25.60
2023-03-04T08:09:14.181Z,22.17
2023-03-04T08:11:43.655Z,33.83
2023-03-04T08:14:13.902Z,29.77
2023-03-04T08:16:43.065Z,27.67
2023-03-04T08:19:13.446Z,22.67
2023-03-04T08:21:43.638Z,20.90
2023-03-04T08:24:13.400Z,44.87
2023-03-04T08:26:47.252Z,23.73
2023-03-04T08:29:23.051Z,20.47
2023-03-04T08:31:55.840Z,27.10
2023-03-04T08:34:29.318Z,27.97
2023-03-04T08:36:59.554Z,22.33
2023-03-04T08:39:28.247Z,22.97
2023-03-04T08:41:57.366Z,20.73
2023-03-04T08:44:26.820Z,19.77
2023-03-04T08:46:57.382Z,23.33
2023-03-04T08:49:26.087Z,21.30
2023-03-04T08:51:55.079Z,23.03
2023-03-04T08:54:25.468Z,21.70
2023-03-04T08:56:54.223Z,20.73
2023-03-04T09:36:06.995Z,19.13
2023-03-04T09:38:36.053Z,18.43
2023-03-04T09:41:12.424Z,16.57
2023-03-04T09:43:43.266Z,21.20
2023-03-04T09:46:17.501Z,17.53
2023-03-04T09:48:51.079Z,17.40
2023-03-04T09:51:25.167Z,16.97
2023-03-04T09:54:08.962Z,16.77
2023-03-04T09:56:41.592Z,14.40
2023-03-04T09:59:24.159Z,16.13
2023-03-04T10:01:57.778Z,20.63
2023-03-04T10:04:38.339Z,18.67
2023-03-04T10:07:18.767Z,20.13
2023-03-04T10:09:55.026Z,17.13
2023-03-04T10:12:30.457Z,17.30
2023-03-04T10:15:04.557Z,16.00
2023-03-04T10:17:39.685Z,18.63
2023-03-04T10:20:17.661Z,15.87
2023-03-04T10:22:51.882Z,18.77
2023-03-04T10:25:24.511Z,16.57
2023-03-04T10:28:00.125Z,15.60
2023-03-04T10:30:45.031Z,16.03
2023-03-04T10:33:16.904Z,11.20
2023-03-04T10:35:52.243Z,16.13
2023-03-04T10:38:24.829Z,14.43
2023-03-04T10:40:53.724Z,14.00
2023-03-04T10:43:23.374Z,14.70
2023-03-04T10:45:59.167Z,17.87
2023-03-04T10:48:31.937Z,22.33
2023-03-04T10:51:30.274Z,16.73
2023-03-04T10:54:10.563Z,15.50
2023-03-04T10:56:42.983Z,14.80
2023-03-04T10:59:46.228Z,16.67
2023-03-04T11:02:34.875Z,15.00
2023-03-04T11:10:49.832Z,11.93
2023-03-04T11:13:21.236Z,12.20
2023-03-04T11:16:00.058Z,15.07
2023-03-04T11:19:27.620Z,11.57
2023-03-04T11:21:59.646Z,14.67
2023-03-04T11:24:32.597Z,9.53
2023-03-04T11:27:07.934Z,13.50
2023-03-04T11:29:51.386Z,12.50
2023-03-04T11:32:39.116Z,12.13
2023-03-04T11:38:17.679Z,13.80
2023-03-04T11:40:53.841Z,13.40
2023-03-04T11:43:31.977Z,11.73
2023-03-04T11:46:53.052Z,12.30
2023-03-04T11:50:20.132Z,10.97
2023-03-04T11:53:38.099Z,13.37
2023-03-04T11:56:32.868Z,12.10
2023-03-04T11:59:34.487Z,17.20
2023-03-04T12:02:21.497Z,12.47
2023-03-04T12:05:36.111Z,11.30
2023-03-04T12:08:36.265Z,14.93
2023-03-04T12:11:13.745Z,11.77
2023-03-04T12:14:14.249Z,13.53
2023-03-04T12:17:23.592Z,12.97
2023-03-04T12:20:21.943Z,12.20
2023-03-04T12:23:04.763Z,12.47
2023-03-04T12:25:46.919Z,14.80
2023-03-04T12:28:36.372Z,11.40
2023-03-04T12:31:40.747Z,11.30
2023-03-04T12:34:58.065Z,15.13
2023-03-04T12:37:58.580Z,11.87
2023-03-04T12:40:44.745Z,12.97
2023-03-04T12:43:36.304Z,15.20
2023-03-04T12:46:20.968Z,14.03
2023-03-04T12:49:11.607Z,13.37
2023-03-04T12:51:49.258Z,10.60
2023-03-04T12:54:33.355Z,16.03
2023-03-04T12:57:09.439Z,10.17
2023-03-04T12:59:45.566Z,13.43
2023-03-04T13:02:46.220Z,16.03
2023-03-04T13:05:34.080Z,11.73
2023-03-04T13:08:17.387Z,11.57
2023-03-04T13:10:52.630Z,12.50
2023-03-04T13:13:41.546Z,9.17
2023-03-04T13:16:33.736Z,12.10
2023-03-04T13:19:02.933Z,7.83
2023-03-04T13:21:33.402Z,10.23
2023-03-04T13:24:42.419Z,9.00
2023-03-04T13:27:50.102Z,7.63
2023-03-04T13:31:15.669Z,7.00
2023-03-04T13:33:55.240Z,5.93
2023-03-04T13:36:59.716Z,5.57
2023-03-04T13:39:37.137Z,6.33
2023-03-04T13:42:46.410Z,8.67
2023-03-04T13:45:38.942Z,6.30
2023-03-04T13:48:26.725Z,7.97
2023-03-04T13:50:55.815Z,5.87
2023-03-04T13:53:49.976Z,7.13
2023-03-04T13:56:31.482Z,8.77
2023-03-04T13:59:32.317Z,6.67
2023-03-04T14:02:04.943Z,7.00
2023-03-04T14:04:37.021Z,6.83
2023-03-04T14:07:23.179Z,5.90
2023-03-04T14:10:02.815Z,7.30
2023-03-04T14:12:37.316Z,5.33
2023-03-04T14:15:22.657Z,6.03
2023-03-04T14:17:55.653Z,5.10
2023-03-04T14:20:28.800Z,6.63
2023-03-04T14:22:59.348Z,6.83
2023-03-04T14:25:31.380Z,6.57
2023-03-04T14:28:12.902Z,18.20
2023-03-04T14:30:45.668Z,7.20
2023-03-04T14:33:22.522Z,8.00
2023-03-04T14:35:55.573Z,6.67
2023-03-04T14:38:29.884Z,6.10
2023-03-04T14:41:05.642Z,5.23
2023-03-04T14:43:42.236Z,6.37
2023-03-04T14:46:19.520Z,5.53
2023-03-04T14:48:53.920Z,5.13
2023-03-04T14:51:41.619Z,7.30
2023-03-04T14:54:34.433Z,7.80
2023-03-04T14:57:24.238Z,6.43
2023-03-04T14:59:53.885Z,7.63
2023-03-04T15:02:31.486Z,7.30
2023-03-04T15:05:16.454Z,7.53
2023-03-04T15:07:55.044Z,5.70
2023-03-04T15:10:27.935Z,7.87
2023-03-04T15:13:01.044Z,6.50
2023-03-04T15:15:42.756Z,6.90
2023-03-04T15:18:31.365Z,6.00
2023-03-04T15:21:06.025Z,6.77
2023-03-04T15:23:35.826Z,7.63
2023-03-04T15:26:06.921Z,7.57
2023-03-04T15:28:39.221Z,8.53
2023-03-04T15:31:18.788Z,6.53
2023-03-04T15:33:49.994Z,9.83
2023-03-04T15:36:25.254Z,7.30
2023-03-04T15:38:55.915Z,5.73
2023-03-04T15:41:28.222Z,7.27
2023-03-04T15:43:57.269Z,7.43
2023-03-04T15:46:25.976Z,5.67
2023-03-04T15:48:56.165Z,5.60
2023-03-04T15:51:25.275Z,10.30
2023-03-04T15:53:57.709Z,8.57
2023-03-04T15:56:30.404Z,11.40
2023-03-04T15:59:04.023Z,11.63
2023-03-04T16:01:33.618Z,9.63
2023-03-04T16:04:03.837Z,11.00
2023-03-04T16:06:34.393Z,7.47
2023-03-04T16:09:06.856Z,8.33
2023-03-04T16:11:45.716Z,7.40
2023-03-04T16:14:15.922Z,9.83
2023-03-04T16:16:46.954Z,10.23
2023-03-04T16:19:17.848Z,11.57
2023-03-04T16:21:47.532Z,9.17
2023-03-04T16:24:22.494Z,8.53
2023-03-04T16:26:53.142Z,12.23
2023-03-04T16:29:22.181Z,7.37
2023-03-04T16:31:51.389Z,9.50
2023-03-04T16:34:21.854Z,12.20
2023-03-04T16:36:51.334Z,7.50
2023-03-04T16:39:26.169Z,14.33
2023-03-04T16:41:56.298Z,15.53
2023-03-04T16:44:26.373Z,19.07
2023-03-04T16:46:55.840Z,14.90
2023-03-04T16:49:28.486Z,17.80
2023-03-04T16:51:57.914Z,8.20
2023-03-04T16:54:32.397Z,13.27
2023-03-04T16:57:02.017Z,10.87
2023-03-04T16:59:31.723Z,5.63
2023-03-04T17:02:01.006Z,8.20
2023-03-04T17:04:31.878Z,5.50
2023-03-04T17:07:00.889Z,8.70
2023-03-04T17:09:29.565Z,9.23
2023-03-04T17:11:59.984Z,8.70
2023-03-04T17:14:29.040Z,5.83
2023-03-04T17:16:57.844Z,6.60
2023-03-04T17:19:26.912Z,7.50
2023-03-04T17:21:58.983Z,7.43
2023-03-04T17:25:28.896Z,7.87
2023-03-04T17:27:58.156Z,5.77
2023-03-04T17:30:29.512Z,7.63
2023-03-04T17:32:58.653Z,8.40
2023-03-04T17:35:27.435Z,8.03
2023-03-04T17:37:57.693Z,7.53
2023-03-04T17:40:26.389Z,8.90
2023-03-04T17:42:55.572Z,12.30
2023-03-04T17:45:24.318Z,10.80
2023-03-04T17:47:53.017Z,10.33
2023-03-04T17:50:22.360Z,17.30
2023-03-04T17:52:51.849Z,9.93
2023-03-04T17:55:23.579Z,9.27
2023-03-04T17:57:53.263Z,8.07
2023-03-04T18:00:23.294Z,10.60
2023-03-04T18:02:52.387Z,9.13
2023-03-04T18:05:21.581Z,8.13
2023-03-04T18:07:50.767Z,7.20
2023-03-04T18:10:20.090Z,8.50
2023-03-04T18:12:51.084Z,9.43
2023-03-04T18:15:19.914Z,8.27
2023-03-04T18:17:48.698Z,10.40
2023-03-04T18:20:18.277Z,8.97
2023-03-04T18:22:47.560Z,7.93
2023-03-04T18:25:17.459Z,9.17
2023-03-04T18:27:46.860Z,8.07
2023-03-04T18:30:21.097Z,9.33
2023-03-04T18:32:52.431Z,8.23
2023-03-04T18:35:21.848Z,7.53
2023-03-04T18:37:51.050Z,10.13
2023-03-04T18:40:20.289Z,10.70
2023-03-04T18:42:49.252Z,5.87
2023-03-04T18:45:22.599Z,10.43
2023-03-04T18:47:54.065Z,10.17
2023-03-04T18:50:23.691Z,8.80
2023-03-04T18:52:54.039Z,11.50
2023-03-04T18:55:26.866Z,6.67
2023-03-04T18:58:01.547Z,10.03
2023-03-04T19:00:31.843Z,9.73
2023-03-04T19:03:08.402Z,11.67
2023-03-04T19:05:37.539Z,18.23
2023-03-04T19:08:07.105Z,19.80
2023-03-04T19:10:36.755Z,15.67
2023-03-04T19:13:23.285Z,15.53
2023-03-04T19:15:55.332Z,20.50
2023-03-04T19:18:24.218Z,16.27
2023-03-04T19:20:56.408Z,14.13
2023-03-04T19:23:25.564Z,7.67
2023-03-04T19:25:54.678Z,13.43
2023-03-04T19:28:24.432Z,13.57
2023-03-04T19:30:59.410Z,15.03
2023-03-04T19:33:28.344Z,17.30
2023-03-04T19:35:57.188Z,11.70
2023-03-04T19:38:25.915Z,9.00
2023-03-04T19:40:54.673Z,13.13
2023-03-04T19:43:23.475Z,7.17
2023-03-04T19:45:58.558Z,7.37
2023-03-04T19:48:27.429Z,11.13
2023-03-04T19:50:56.574Z,10.53
2023-03-04T19:53:25.651Z,10.13
2023-03-04T19:55:54.861Z,11.63
2023-03-04T19:58:23.810Z,10.37
2023-03-04T20:00:55.082Z,10.13
2023-03-04T20:03:27.272Z,11.43
2023-03-04T20:06:06.017Z,10.53
2023-03-04T20:08:37.182Z,11.60
2023-03-04T20:11:09.285Z,9.57
2023-03-04T20:13:37.969Z,11.33
2023-03-04T20:16:12.375Z,14.50
2023-03-04T20:18:44.604Z,10.80
2023-03-04T20:21:14.951Z,13.47
2023-03-04T20:23:45.337Z,10.30
2023-03-04T20:26:14.635Z,13.00
2023-03-04T20:28:51.839Z,12.80
2023-03-04T20:31:24.283Z,10.07
2023-03-04T20:33:57.508Z,12.93
2023-03-04T20:36:29.453Z,10.60
2023-03-04T20:39:02.851Z,13.90
2023-03-04T20:41:36.665Z,12.77
2023-03-04T20:44:06.411Z,12.00
2023-03-04T20:46:41.223Z,10.67
2023-03-04T20:49:15.117Z,12.93
2023-03-04T20:51:44.882Z,12.53
2023-03-04T20:54:13.996Z,13.40
2023-03-04T20:56:43.338Z,12.63
2023-03-04T20:59:25.912Z,12.53
2023-03-04T21:01:55.371Z,12.00
2023-03-04T21:04:25.794Z,15.37
2023-03-04T21:06:55.240Z,15.17
2023-03-04T21:09:25.086Z,15.90
2023-03-04T21:11:55.569Z,8.93
2023-03-04T21:14:26.833Z,12.53
2023-03-04T21:16:58.506Z,11.73
2023-03-04T21:19:30.953Z,12.57
2023-03-04T21:22:01.878Z,11.83
2023-03-04T21:24:39.355Z,11.53
2023-03-04T21:27:08.655Z,12.20
2023-03-04T21:29:37.836Z,8.90
2023-03-04T21:32:23.374Z,14.23
2023-03-04T21:34:56.523Z,17.20
2023-03-04T21:37:26.805Z,11.37
2023-03-04T21:39:58.279Z,11.43
2023-03-04T21:42:27.282Z,10.33
2023-03-04T21:44:56.328Z,10.43
2023-03-04T21:47:25.276Z,11.53
2023-03-04T21:49:55.634Z,10.63
2023-03-04T21:52:24.868Z,14.13
2023-03-04T21:54:56.497Z,10.73
2023-03-04T21:57:26.954Z,10.47
2023-03-04T21:59:57.433Z,9.90
2023-03-04T22:02:26.829Z,11.77
2023-03-04T22:04:57.124Z,11.33
2023-03-04T22:07:26.552Z,14.70
2023-03-04T22:09:57.695Z,11.40
2023-03-04T22:12:27.146Z,13.47
2023-03-04T22:14:56.348Z,13.83
2023-03-04T22:17:25.516Z,11.93
2023-03-04T22:19:55.209Z,13.73
2023-03-04T22:22:27.186Z,10.73
2023-03-04T22:24:59.430Z,15.97
2023-03-04T22:27:30.698Z,13.50
2023-03-04T22:29:59.337Z,11.57
2023-03-04T22:32:28.285Z,13.70
2023-03-04T22:34:57.762Z,10.90
2023-03-04T22:37:30.006Z,10.13
2023-03-04T22:39:59.414Z,14.33
2023-03-04T22:42:28.072Z,12.80
2023-03-04T22:44:57.829Z,15.07
2023-03-04T22:47:26.836Z,17.40
2023-03-04T22:49:55.502Z,12.07
2023-03-04T22:52:24.494Z,13.90
2023-03-04T22:54:55.137Z,10.80
2023-03-04T22:57:23.942Z,12.80
2023-03-04T22:59:52.689Z,12.30
2023-03-04T23:02:21.488Z,14.90
2023-03-04T23:04:50.742Z,12.90
2023-03-04T23:07:21.500Z,10.93
2023-03-04T23:09:50.831Z,12.87
2023-03-04T23:12:21.828Z,14.90
2023-03-04T23:14:50.831Z,13.00
2023-03-04T23:17:19.486Z,14.73
2023-03-04T23:19:48.588Z,11.57
2023-03-04T23:22:17.318Z,9.60
2023-03-04T23:24:46.552Z,12.23
2023-03-04T23:27:23.228Z,10.00
2023-03-04T23:29:52.594Z,10.60
2023-03-04T23:32:21.558Z,13.73
2023-03-04T23:34:53.329Z,10.83
2023-03-04T23:37:23.459Z,11.27
2023-03-04T23:39:52.221Z,9.97
2023-03-04T23:42:22.515Z,10.77
2023-03-04T23:44:51.182Z,14.03
2023-03-04T23:47:19.830Z,12.77
2023-03-04T23:49:49.105Z,10.60
2023-03-04T23:52:17.840Z,7.27
2023-03-04T23:54:46.625Z,12.40
2023-03-04T23:57:15.295Z,9.07
2023-03-04T23:59:45.435Z,9.63
